Chippenhook, Vermont
Current Conditions -  °F | °C
As of 7:55 PM on Friday 24 Oct 2014 (Local Time) from KRUT Reporting Station
Overcast Overcast  
Wind Chill: 40°   Ceiling: 2700
Heat Index: 45°   Visibility: 10mi
Dew Point: 39°   Wind: 8mph
Humidity: 81%   Direction: 330°NNW
Pressure: 29.83"   Gusts: NA
Location:  43.5746°N, 73.0567°W
Report Text: KRUT 242355Z 33007KT 10SM OVC027 07/04 A2983 RMK AO1 10070 20060 400700040 52010
Loading
Personal Weather Stations






























Interactive Weather Map
Tropical Storm Tracking
New forecast layout! Learn more

10-Day Weather Forecast

Advertisements
Track Severe Weather on mobile